createdAt,value
2023-03-29T00:01:35.177Z,492.00
2023-03-29T00:02:14.744Z,492.00
2023-03-29T00:05:14.686Z,487.00
2023-03-29T00:07:14.695Z,491.00
2023-03-29T00:09:14.647Z,491.00
2023-03-29T00:10:14.627Z,492.00
2023-03-29T00:11:14.630Z,493.00
2023-03-29T00:14:14.613Z,494.00
2023-03-29T00:15:14.614Z,494.00
2023-03-29T00:18:14.591Z,489.00
2023-03-29T00:19:14.595Z,486.00
2023-03-29T00:23:14.558Z,489.00
2023-03-29T00:25:14.538Z,488.00
2023-03-29T00:26:14.600Z,486.00
2023-03-29T00:27:14.575Z,491.00
2023-03-29T00:29:14.501Z,494.00
2023-03-29T00:30:14.487Z,493.00
2023-03-29T00:33:14.459Z,496.00
2023-03-29T00:34:14.459Z,493.00
2023-03-29T00:36:14.488Z,488.00
2023-03-29T00:37:14.450Z,488.00
2023-03-29T00:39:14.425Z,491.00
2023-03-29T00:41:14.403Z,494.00
2023-03-29T00:43:14.383Z,499.00
2023-03-29T00:46:14.409Z,496.00
2023-03-29T00:48:14.327Z,488.00
2023-03-29T00:49:14.317Z,486.00
2023-03-29T00:50:14.340Z,488.00
2023-03-29T00:52:14.272Z,488.00
2023-03-29T00:53:14.254Z,488.00
2023-03-29T00:57:14.261Z,490.00
2023-03-29T00:58:14.221Z,488.00
2023-03-29T01:01:14.178Z,491.00
2023-03-29T01:02:14.252Z,491.00
2023-03-29T01:03:14.211Z,492.00
2023-03-29T01:04:14.138Z,491.00
2023-03-29T01:08:14.089Z,488.00
2023-03-29T01:11:14.063Z,487.00
2023-03-29T01:13:14.034Z,489.00
2023-03-29T01:14:14.031Z,488.00
2023-03-29T01:17:14.012Z,485.00
2023-03-29T01:19:13.989Z,482.00
2023-03-29T01:22:13.982Z,488.00
2023-03-29T01:23:14.012Z,489.00
2023-03-29T01:25:13.919Z,487.00
2023-03-29T01:28:13.898Z,485.00
2023-03-29T01:29:13.881Z,485.00
2023-03-29T01:30:13.886Z,487.00
2023-03-29T01:34:13.960Z,483.00
2023-03-29T01:35:13.803Z,481.00
2023-03-29T01:38:13.769Z,486.00
2023-03-29T01:39:13.744Z,487.00
2023-03-29T01:43:13.693Z,483.00
2023-03-29T01:44:13.691Z,478.00
2023-03-29T01:45:13.682Z,481.00
2023-03-29T01:46:13.722Z,482.00
2023-03-29T01:47:13.683Z,481.00
2023-03-29T01:50:13.628Z,479.00
2023-03-29T01:53:13.565Z,481.00
2023-03-29T01:54:13.555Z,482.00
2023-03-29T01:55:13.543Z,481.00
2023-03-29T01:56:13.528Z,480.00
2023-03-29T02:00:13.494Z,479.00
2023-03-29T02:01:13.510Z,482.00
2023-03-29T02:04:13.511Z,482.00
2023-03-29T02:05:13.438Z,484.00
2023-03-29T02:06:13.420Z,486.00
2023-03-29T02:10:13.382Z,487.00
2023-03-29T02:12:13.367Z,485.00
2023-03-29T02:14:13.357Z,482.00
2023-03-29T02:15:13.353Z,484.00
2023-03-29T02:17:13.326Z,481.00
2023-03-29T02:18:13.367Z,478.00
2023-03-29T02:21:13.304Z,474.00
2023-03-29T02:23:13.305Z,478.00
2023-03-29T02:25:13.301Z,477.00
2023-03-29T02:26:13.297Z,478.00
2023-03-29T02:29:13.279Z,476.00
2023-03-29T02:30:13.286Z,474.00
2023-03-29T02:31:13.317Z,474.00
2023-03-29T02:32:13.280Z,474.00
2023-03-29T02:33:13.280Z,473.00
2023-03-29T02:37:13.250Z,468.00
2023-03-29T02:38:13.299Z,467.00
2023-03-29T02:40:13.271Z,470.00
2023-03-29T02:41:13.227Z,472.00
2023-03-29T02:42:13.235Z,473.00
2023-03-29T02:43:13.208Z,473.00
2023-03-29T02:47:13.162Z,468.00
2023-03-29T02:48:13.140Z,468.00
2023-03-29T02:51:13.104Z,461.00
2023-03-29T02:54:13.047Z,462.00
2023-03-29T02:57:13.081Z,463.00
2023-03-29T02:58:13.016Z,463.00
2023-03-29T03:00:12.999Z,455.00
2023-03-29T03:03:13.129Z,446.00
2023-03-29T03:04:12.998Z,445.00
2023-03-29T03:07:12.926Z,433.00
2023-03-29T03:08:12.942Z,431.00
2023-03-29T03:11:12.905Z,428.00
2023-03-29T03:12:12.912Z,425.00
2023-03-29T03:13:12.912Z,426.00
2023-03-29T03:14:12.897Z,427.00
2023-03-29T03:18:12.867Z,416.00
2023-03-29T03:19:12.844Z,414.00
2023-03-29T03:22:12.824Z,407.00
2023-03-29T03:23:12.836Z,411.00
2023-03-29T03:25:12.818Z,413.00
2023-03-29T03:27:12.800Z,412.00
2023-03-29T03:28:12.799Z,411.00
2023-03-29T03:31:12.826Z,410.00
2023-03-29T03:35:12.772Z,402.00
2023-03-29T03:38:12.786Z,400.00
2023-03-29T03:39:12.777Z,397.00
2023-03-29T03:40:12.786Z,396.00
2023-03-29T03:44:12.760Z,394.00
2023-03-29T03:45:12.724Z,398.00
2023-03-29T03:46:12.774Z,398.00
2023-03-29T03:49:12.698Z,401.00
2023-03-29T03:52:12.695Z,393.00
2023-03-29T03:56:12.666Z,390.00
2023-03-29T03:57:12.753Z,390.00
2023-03-29T03:58:12.667Z,389.00
2023-03-29T03:59:12.678Z,388.00
2023-03-29T04:05:12.647Z,385.00
2023-03-29T04:06:12.646Z,385.00
2023-03-29T04:07:12.630Z,383.00
2023-03-29T04:09:12.616Z,384.00
2023-03-29T04:14:12.610Z,387.00
2023-03-29T04:15:12.599Z,384.00
2023-03-29T04:16:12.636Z,382.00
2023-03-29T04:17:12.577Z,383.00
2023-03-29T04:18:12.781Z,381.00
2023-03-29T04:23:12.547Z,382.00
2023-03-29T04:25:12.593Z,384.00
2023-03-29T04:27:12.548Z,382.00
2023-03-29T04:29:12.537Z,383.00
2023-03-29T04:32:12.536Z,383.00
2023-03-29T04:36:12.524Z,386.00
2023-03-29T04:37:12.508Z,386.00
2023-03-29T04:38:12.509Z,385.00
2023-03-29T04:41:12.483Z,385.00
2023-03-29T04:42:12.492Z,385.00
2023-03-29T04:44:12.513Z,384.00
2023-03-29T04:48:12.489Z,380.00
2023-03-29T04:51:12.417Z,382.00
2023-03-29T04:52:12.427Z,384.00
2023-03-29T04:53:12.423Z,380.00
2023-03-29T04:54:12.402Z,380.00
2023-03-29T04:55:12.406Z,377.00
2023-03-29T04:58:12.404Z,376.00
2023-03-29T05:00:12.405Z,373.00
2023-03-29T05:03:12.430Z,364.00
2023-03-29T05:04:12.883Z,367.00
2023-03-29T05:05:12.415Z,369.00
2023-03-29T05:06:12.384Z,367.00
2023-03-29T05:10:12.395Z,370.00
2023-03-29T05:11:12.400Z,371.00
2023-03-29T05:13:12.416Z,370.00
2023-03-29T05:14:12.403Z,368.00
2023-03-29T05:15:12.424Z,370.00
2023-03-29T05:17:12.434Z,373.00
2023-03-29T05:18:12.477Z,372.00
2023-03-29T05:19:12.430Z,374.00
2023-03-29T05:23:12.412Z,373.00
2023-03-29T05:26:12.405Z,376.00
2023-03-29T05:28:12.391Z,374.00
2023-03-29T05:29:12.397Z,375.00
2023-03-29T05:30:12.453Z,399.00
2023-03-29T05:34:12.389Z,518.00
2023-03-29T05:37:12.526Z,542.00
2023-03-29T05:38:12.364Z,544.00
2023-03-29T05:40:12.377Z,587.00
2023-03-29T05:45:12.380Z,635.00
2023-03-29T05:46:12.403Z,645.00
2023-03-29T05:49:12.343Z,700.00
2023-03-29T05:53:12.325Z,594.00
2023-03-29T05:54:12.294Z,602.00
2023-03-29T05:56:12.290Z,619.00
2023-03-29T05:57:12.397Z,632.00
2023-03-29T06:00:12.263Z,689.00
2023-03-29T06:01:12.265Z,692.00
2023-03-29T06:03:20.251Z,727.00
2023-03-29T06:04:13.367Z,741.00
2023-03-29T06:05:12.234Z,748.00
2023-03-29T06:06:12.241Z,753.00
2023-03-29T06:07:12.272Z,758.00
2023-03-29T06:09:12.213Z,764.00
2023-03-29T06:10:12.201Z,769.00
2023-03-29T06:14:12.165Z,771.00
2023-03-29T06:15:12.184Z,784.00
2023-03-29T06:16:12.147Z,790.00
2023-03-29T06:17:12.178Z,793.00
2023-03-29T06:18:12.232Z,800.00
2023-03-29T06:19:12.150Z,805.00
2023-03-29T06:20:12.133Z,806.00
2023-03-29T06:21:12.821Z,807.00
2023-03-29T06:24:12.108Z,808.00
2023-03-29T06:25:12.115Z,813.00
2023-03-29T06:26:12.130Z,814.00
2023-03-29T06:28:12.077Z,816.00
2023-03-29T06:29:12.087Z,819.00
2023-03-29T06:31:12.138Z,839.00
2023-03-29T06:35:12.042Z,834.00
2023-03-29T06:37:11.996Z,834.00
2023-03-29T06:38:11.993Z,839.00
2023-03-29T06:40:11.968Z,847.00
2023-03-29T06:45:11.946Z,871.00
2023-03-29T06:46:12.253Z,931.00
2023-03-29T06:49:11.916Z,932.00
2023-03-29T06:50:11.920Z,933.00
2023-03-29T06:51:11.917Z,937.00
2023-03-29T06:55:11.856Z,725.00
2023-03-29T06:58:11.866Z,741.00
2023-03-29T06:59:11.833Z,738.00
2023-03-29T07:01:11.846Z,758.00
2023-03-29T07:02:11.863Z,761.00
2023-03-29T07:03:11.845Z,766.00
2023-03-29T07:04:11.859Z,769.00
2023-03-29T07:08:11.791Z,796.00
2023-03-29T07:09:11.745Z,795.00
2023-03-29T07:12:11.785Z,820.00
2023-03-29T07:13:11.716Z,825.00
2023-03-29T07:14:11.713Z,826.00
2023-03-29T07:15:11.709Z,829.00
2023-03-29T07:16:11.779Z,842.00
2023-03-29T07:17:11.689Z,860.00
2023-03-29T07:19:11.671Z,874.00
2023-03-29T07:23:11.861Z,918.00
2023-03-29T07:25:11.617Z,931.00
2023-03-29T07:26:11.615Z,942.00
2023-03-29T07:27:11.612Z,951.00
2023-03-29T07:29:11.590Z,964.00
2023-03-29T07:30:11.588Z,967.00
2023-03-29T07:32:11.586Z,979.00
2023-03-29T07:34:11.521Z,996.00
2023-03-29T07:37:11.486Z,1008.00
2023-03-29T07:38:11.463Z,1015.00
2023-03-29T07:40:11.449Z,1046.00
2023-03-29T07:43:11.407Z,1098.00
2023-03-29T07:47:11.388Z,1142.00
2023-03-29T07:48:11.368Z,1151.00
2023-03-29T07:49:11.330Z,1166.00
2023-03-29T07:50:11.347Z,1171.00
2023-03-29T07:51:11.314Z,1173.00
2023-03-29T07:56:11.232Z,1190.00
2023-03-29T07:57:11.294Z,1191.00
2023-03-29T07:59:11.189Z,1176.00
2023-03-29T08:00:11.181Z,1140.00
2023-03-29T08:01:14.193Z,1140.00
2023-03-29T08:02:11.139Z,1141.00
2023-03-29T08:05:11.126Z,1123.00
2023-03-29T08:09:11.035Z,1109.00
2023-03-29T08:10:11.022Z,1107.00
2023-03-29T08:11:11.018Z,1105.00
2023-03-29T08:12:10.993Z,1100.00
2023-03-29T08:18:10.922Z,1080.00
2023-03-29T08:19:10.878Z,1075.00
2023-03-29T08:21:10.839Z,1074.00
2023-03-29T08:22:10.813Z,1067.00
2023-03-29T08:23:10.795Z,1067.00
2023-03-29T08:27:10.744Z,1096.00
2023-03-29T08:29:10.693Z,1135.00
2023-03-29T08:31:10.682Z,1156.00
2023-03-29T08:32:10.631Z,1135.00
2023-03-29T08:33:10.657Z,1128.00
2023-03-29T08:34:10.585Z,1122.00
2023-03-29T08:39:10.512Z,1004.00
2023-03-29T08:40:10.492Z,998.00
2023-03-29T08:42:10.498Z,985.00
2023-03-29T08:44:10.434Z,980.00
2023-03-29T08:46:10.486Z,964.00
2023-03-29T08:50:10.357Z,1029.00
2023-03-29T08:52:10.321Z,1012.00
2023-03-29T08:53:10.326Z,1010.00
2023-03-29T08:57:10.296Z,1083.00
2023-03-29T08:58:10.275Z,1062.00
2023-03-29T08:59:10.245Z,1058.00
2023-03-29T09:01:10.229Z,1066.00
2023-03-29T09:02:10.216Z,1069.00
2023-03-29T09:03:10.280Z,1074.00
2023-03-29T09:07:10.144Z,1113.00
2023-03-29T09:08:10.146Z,1127.00
2023-03-29T09:09:10.116Z,1145.00
2023-03-29T09:11:10.085Z,1146.00
2023-03-29T09:13:10.062Z,1147.00
2023-03-29T09:14:10.055Z,1147.00
2023-03-29T09:16:10.068Z,1151.00
2023-03-29T09:20:09.964Z,1115.00
2023-03-29T09:21:09.941Z,1115.00
2023-03-29T09:22:09.917Z,1122.00
2023-03-29T09:24:09.899Z,1105.00
2023-03-29T09:25:09.908Z,1108.00
2023-03-29T09:26:09.868Z,1106.00
2023-03-29T09:27:09.871Z,1111.00
2023-03-29T09:30:09.820Z,1102.00
2023-03-29T09:31:09.879Z,1088.00
2023-03-29T09:33:09.872Z,1058.00
2023-03-29T09:34:09.791Z,1044.00
2023-03-29T09:35:09.780Z,1041.00
2023-03-29T09:36:09.790Z,1041.00
2023-03-29T09:38:09.713Z,1048.00
2023-03-29T09:40:09.691Z,1110.00
2023-03-29T09:45:09.632Z,1041.00
2023-03-29T09:46:09.615Z,1024.00
2023-03-29T09:48:09.627Z,969.00
2023-03-29T09:53:09.529Z,868.00
2023-03-29T09:54:09.510Z,839.00
2023-03-29T09:55:09.499Z,820.00
2023-03-29T09:56:09.507Z,813.00
2023-03-29T09:58:09.484Z,777.00
2023-03-29T10:01:09.583Z,749.00
2023-03-29T10:04:09.456Z,723.00
2023-03-29T10:05:09.384Z,718.00
2023-03-29T10:06:09.370Z,709.00
2023-03-29T10:07:09.356Z,701.00
2023-03-29T10:11:09.295Z,676.00
2023-03-29T10:14:09.264Z,647.00
2023-03-29T10:15:16.686Z,640.00
2023-03-29T10:16:10.250Z,635.00
2023-03-29T10:18:09.193Z,628.00
2023-03-29T10:20:10.170Z,619.00
2023-03-29T10:24:09.063Z,600.00
2023-03-29T10:26:09.045Z,597.00
2023-03-29T10:29:09.006Z,593.00
2023-03-29T10:30:08.992Z,597.00
2023-03-29T10:32:08.999Z,598.00
2023-03-29T10:36:08.983Z,594.00
2023-03-29T10:39:08.881Z,596.00
2023-03-29T10:40:08.862Z,598.00
2023-03-29T10:41:08.835Z,598.00
2023-03-29T10:42:08.820Z,597.00
2023-03-29T10:43:08.805Z,598.00
2023-03-29T10:44:08.801Z,601.00
2023-03-29T10:45:08.776Z,603.00
2023-03-29T10:50:08.717Z,603.00
2023-03-29T10:51:08.679Z,605.00
2023-03-29T10:52:08.710Z,607.00
2023-03-29T10:53:08.654Z,607.00
2023-03-29T10:54:08.646Z,608.00
2023-03-29T10:55:08.650Z,610.00
2023-03-29T11:01:08.531Z,606.00
2023-03-29T11:02:08.505Z,605.00
2023-03-29T11:03:08.631Z,607.00
2023-03-29T11:06:08.462Z,609.00
2023-03-29T11:07:08.462Z,608.00
2023-03-29T11:10:08.388Z,608.00
2023-03-29T11:12:15.628Z,607.00
2023-03-29T11:13:09.331Z,607.00
2023-03-29T11:14:08.322Z,606.00
2023-03-29T11:16:08.348Z,606.00
2023-03-29T11:18:08.265Z,608.00
2023-03-29T11:21:10.744Z,600.00
2023-03-29T11:22:08.180Z,601.00
2023-03-29T11:25:08.124Z,601.00
2023-03-29T11:26:08.162Z,604.00
2023-03-29T11:28:08.064Z,600.00
2023-03-29T11:30:08.032Z,604.00
2023-03-29T11:33:07.994Z,603.00
2023-03-29T11:34:07.963Z,600.00
2023-03-29T11:35:07.978Z,599.00
2023-03-29T11:36:07.997Z,599.00
2023-03-29T11:39:07.878Z,598.00
2023-03-29T11:41:07.854Z,603.00
2023-03-29T11:43:07.813Z,615.00
2023-03-29T11:47:07.741Z,658.00
2023-03-29T11:49:07.759Z,652.00
2023-03-29T11:50:07.761Z,649.00
2023-03-29T11:51:07.691Z,637.00
2023-03-29T11:56:07.605Z,633.00
2023-03-29T11:58:07.569Z,634.00
2023-03-29T11:59:07.626Z,629.00
2023-03-29T12:00:07.528Z,627.00
2023-03-29T12:02:07.593Z,619.00
2023-03-29T12:03:07.538Z,617.00
2023-03-29T12:08:07.410Z,604.00
2023-03-29T12:09:07.394Z,599.00
2023-03-29T12:11:07.349Z,599.00
2023-03-29T12:12:07.342Z,599.00
2023-03-29T12:13:07.312Z,594.00
2023-03-29T12:15:07.286Z,581.00
2023-03-29T12:20:07.201Z,572.00
2023-03-29T12:21:07.293Z,573.00
2023-03-29T12:22:07.168Z,568.00
2023-03-29T12:24:07.136Z,569.00
2023-03-29T12:27:07.073Z,560.00
2023-03-29T12:28:07.069Z,557.00
2023-03-29T12:30:07.044Z,554.00
2023-03-29T12:33:07.031Z,567.00
2023-03-29T12:34:06.965Z,648.00
2023-03-29T12:35:06.955Z,638.00
2023-03-29T12:39:06.883Z,636.00
2023-03-29T12:41:06.854Z,623.00
2023-03-29T12:43:06.829Z,613.00
2023-03-29T12:44:08.355Z,607.00
2023-03-29T12:46:06.813Z,600.00
2023-03-29T12:47:06.769Z,600.00
2023-03-29T12:49:06.745Z,604.00
2023-03-29T12:50:06.730Z,594.00
2023-03-29T12:51:06.730Z,579.00
2023-03-29T12:52:06.718Z,568.00
2023-03-29T12:53:06.717Z,552.00
2023-03-29T12:54:06.694Z,551.00
2023-03-29T12:55:06.683Z,553.00
2023-03-29T12:56:06.671Z,554.00
2023-03-29T12:57:06.722Z,560.00
2023-03-29T13:00:56.317Z,631.00
2023-03-29T13:01:56.432Z,591.00
2023-03-29T13:02:56.355Z,583.00
2023-03-29T13:03:56.277Z,606.00
2023-03-29T13:04:56.335Z,613.00
2023-03-29T13:05:56.268Z,595.00
2023-03-29T13:06:56.292Z,579.00
2023-03-29T13:07:56.268Z,566.00
2023-03-29T13:08:56.288Z,557.00
2023-03-29T13:09:56.238Z,617.00
2023-03-29T13:10:56.245Z,584.00
2023-03-29T13:11:56.250Z,567.00
2023-03-29T13:12:56.231Z,575.00
2023-03-29T13:13:56.228Z,581.00
2023-03-29T13:14:56.226Z,586.00
2023-03-29T13:15:56.281Z,585.00
2023-03-29T13:16:57.176Z,575.00
2023-03-29T13:17:56.240Z,564.00
2023-03-29T13:18:56.219Z,557.00
2023-03-29T13:19:56.194Z,556.00
2023-03-29T13:20:56.227Z,552.00
2023-03-29T13:21:56.200Z,552.00
2023-03-29T13:22:56.181Z,551.00
2023-03-29T13:23:56.164Z,554.00
2023-03-29T13:24:56.156Z,557.00
2023-03-29T13:25:56.159Z,619.00
2023-03-29T13:26:56.167Z,676.00
2023-03-29T13:27:56.172Z,744.00
2023-03-29T13:28:58.278Z,789.00
2023-03-29T13:29:56.114Z,763.00
2023-03-29T13:30:56.137Z,758.00
2023-03-29T13:31:56.090Z,702.00
2023-03-29T13:32:56.147Z,677.00
2023-03-29T13:33:56.074Z,667.00
2023-03-29T13:34:56.078Z,658.00
2023-03-29T13:35:56.079Z,651.00
2023-03-29T13:36:56.042Z,642.00
2023-03-29T13:37:56.021Z,637.00
2023-03-29T13:38:56.020Z,626.00
2023-03-29T13:39:56.141Z,622.00
2023-03-29T13:40:56.953Z,612.00
2023-03-29T13:41:56.183Z,603.00
2023-03-29T13:42:56.240Z,590.00
2023-03-29T13:43:56.235Z,580.00
2023-03-29T13:44:56.237Z,576.00
2023-03-29T13:45:56.259Z,577.00
2023-03-29T13:46:56.334Z,580.00
2023-03-29T13:48:04.992Z,578.00
2023-03-29T13:48:57.240Z,578.00
2023-03-29T13:49:56.230Z,580.00
2023-03-29T13:50:56.237Z,580.00
2023-03-29T13:51:56.226Z,582.00
2023-03-29T13:52:56.218Z,582.00
2023-03-29T13:53:56.223Z,577.00
2023-03-29T13:54:56.183Z,579.00
2023-03-29T13:55:56.180Z,588.00
2023-03-29T13:56:56.222Z,587.00
2023-03-29T13:57:56.184Z,595.00
2023-03-29T13:58:56.166Z,591.00
2023-03-29T13:59:56.141Z,577.00
2023-03-29T14:00:56.201Z,575.00
2023-03-29T14:01:56.161Z,579.00
2023-03-29T14:02:56.185Z,579.00
2023-03-29T14:03:56.139Z,576.00
2023-03-29T14:04:56.127Z,573.00
2023-03-29T14:05:56.097Z,573.00
2023-03-29T14:06:56.108Z,613.00
2023-03-29T14:07:56.096Z,588.00
2023-03-29T14:08:56.059Z,587.00
2023-03-29T14:09:56.061Z,590.00
2023-03-29T14:10:56.048Z,589.00
2023-03-29T14:11:56.027Z,635.00
2023-03-29T14:12:56.027Z,616.00
2023-03-29T14:13:56.022Z,659.00
2023-03-29T14:14:59.233Z,649.00
2023-03-29T14:15:56.003Z,649.00
2023-03-29T14:16:56.029Z,657.00
2023-03-29T14:17:57.177Z,667.00
2023-03-29T14:18:56.001Z,648.00
2023-03-29T14:19:55.958Z,859.00
2023-03-29T14:20:55.958Z,761.00
2023-03-29T14:21:55.955Z,754.00
2023-03-29T14:22:55.940Z,752.00
2023-03-29T14:23:55.909Z,753.00
2023-03-29T14:24:55.898Z,749.00
2023-03-29T14:25:55.893Z,744.00
2023-03-29T14:26:55.867Z,739.00
2023-03-29T14:27:55.906Z,734.00
2023-03-29T14:28:55.845Z,729.00
2023-03-29T14:29:55.836Z,726.00
2023-03-29T14:30:55.820Z,722.00
2023-03-29T14:31:55.852Z,713.00
2023-03-29T14:32:55.838Z,709.00
2023-03-29T14:33:55.770Z,703.00
2023-03-29T14:34:55.813Z,697.00
2023-03-29T14:35:55.840Z,696.00
2023-03-29T14:36:55.934Z,690.00
2023-03-29T14:37:55.847Z,681.00
2023-03-29T14:38:55.852Z,677.00
2023-03-29T14:39:55.867Z,675.00
2023-03-29T14:40:55.885Z,671.00
2023-03-29T14:41:55.884Z,659.00
2023-03-29T14:42:55.923Z,649.00
2023-03-29T14:43:55.912Z,644.00
2023-03-29T14:44:55.911Z,642.00
2023-03-29T14:45:55.955Z,637.00
2023-03-29T14:46:55.941Z,631.00
2023-03-29T14:47:55.972Z,627.00
2023-03-29T14:48:55.952Z,622.00
2023-03-29T14:49:55.969Z,616.00
2023-03-29T14:50:55.982Z,614.00
2023-03-29T14:51:55.981Z,614.00
2023-03-29T14:52:56.006Z,609.00
2023-03-29T14:53:56.004Z,605.00
2023-03-29T14:54:56.012Z,601.00
2023-03-29T14:55:56.018Z,599.00
2023-03-29T14:56:56.097Z,599.00
2023-03-29T14:57:56.055Z,595.00
2023-03-29T14:58:56.035Z,593.00
2023-03-29T14:59:56.041Z,592.00
2023-03-29T15:00:56.099Z,591.00
2023-03-29T15:01:56.053Z,588.00
2023-03-29T15:02:56.098Z,586.00
2023-03-29T15:03:56.074Z,585.00
2023-03-29T15:04:56.021Z,583.00
2023-03-29T15:05:56.014Z,585.00
2023-03-29T15:06:55.985Z,588.00
2023-03-29T15:07:55.993Z,590.00
2023-03-29T15:09:04.996Z,592.00
2023-03-29T15:09:56.946Z,591.00
2023-03-29T15:10:55.935Z,591.00
2023-03-29T15:11:55.910Z,593.00
2023-03-29T15:12:55.905Z,591.00
2023-03-29T15:13:55.877Z,591.00
2023-03-29T15:14:55.874Z,589.00
2023-03-29T15:15:55.875Z,588.00
2023-03-29T15:16:55.841Z,588.00
2023-03-29T15:17:55.860Z,590.00
2023-03-29T15:18:55.809Z,591.00
2023-03-29T15:19:55.796Z,591.00
2023-03-29T15:20:55.789Z,590.00
2023-03-29T15:21:55.786Z,593.00
2023-03-29T15:22:55.765Z,595.00
2023-03-29T15:23:55.756Z,599.00
2023-03-29T15:24:55.746Z,599.00
2023-03-29T15:25:55.724Z,598.00
2023-03-29T15:26:55.722Z,599.00
2023-03-29T15:27:55.706Z,599.00
2023-03-29T15:28:55.813Z,602.00
2023-03-29T15:29:55.682Z,601.00
2023-03-29T15:31:07.315Z,601.00
2023-03-29T15:31:56.687Z,603.00
2023-03-29T15:32:55.769Z,604.00
2023-03-29T15:33:55.647Z,607.00
2023-03-29T15:34:55.632Z,607.00
2023-03-29T15:35:55.654Z,609.00
2023-03-29T15:36:55.605Z,608.00
2023-03-29T15:37:55.569Z,610.00
2023-03-29T15:38:55.565Z,606.00
2023-03-29T15:39:55.548Z,604.00
2023-03-29T15:40:55.562Z,606.00
2023-03-29T15:41:55.510Z,609.00
2023-03-29T15:42:55.491Z,610.00
2023-03-29T15:43:55.482Z,608.00
2023-03-29T15:44:55.478Z,607.00
2023-03-29T15:45:55.458Z,609.00
2023-03-29T15:46:55.609Z,608.00
2023-03-29T15:47:55.429Z,607.00
2023-03-29T15:48:55.419Z,607.00
2023-03-29T15:49:55.392Z,607.00
2023-03-29T15:50:55.385Z,606.00
2023-03-29T15:51:55.354Z,605.00
2023-03-29T15:52:59.970Z,604.00
2023-03-29T15:53:56.334Z,602.00
2023-03-29T15:54:55.307Z,601.00
2023-03-29T15:55:55.291Z,600.00
2023-03-29T15:56:55.395Z,604.00
2023-03-29T15:57:55.319Z,609.00
2023-03-29T15:58:55.243Z,608.00
2023-03-29T15:59:55.234Z,607.00
2023-03-29T16:00:55.228Z,604.00
2023-03-29T16:01:55.246Z,606.00
2023-03-29T16:02:55.234Z,609.00
2023-03-29T16:03:55.171Z,608.00
2023-03-29T16:04:55.166Z,608.00
2023-03-29T16:05:55.138Z,608.00
2023-03-29T16:06:55.140Z,604.00
2023-03-29T16:07:55.116Z,603.00
2023-03-29T16:08:56.800Z,602.00
2023-03-29T16:09:55.090Z,604.00
2023-03-29T16:10:55.084Z,603.00
2023-03-29T16:11:55.081Z,600.00
2023-03-29T16:12:55.045Z,596.00
2023-03-29T16:13:55.093Z,601.00
2023-03-29T16:14:55.020Z,603.00
2023-03-29T16:15:55.012Z,604.00
2023-03-29T16:16:55.146Z,600.00
2023-03-29T16:17:55.005Z,601.00
2023-03-29T16:18:54.959Z,600.00
2023-03-29T16:19:54.932Z,603.00
2023-03-29T16:20:54.929Z,602.00
2023-03-29T16:21:54.905Z,599.00
2023-03-29T16:22:54.891Z,601.00
2023-03-29T16:23:54.907Z,602.00
2023-03-29T16:24:54.877Z,603.00
2023-03-29T16:25:54.862Z,600.00
2023-03-29T16:26:56.026Z,601.00
2023-03-29T16:27:54.841Z,604.00
2023-03-29T16:28:54.850Z,603.00
2023-03-29T16:29:54.838Z,601.00
2023-03-29T16:30:54.839Z,600.00
2023-03-29T16:31:54.941Z,601.00
2023-03-29T16:32:54.876Z,603.00
2023-03-29T16:33:54.856Z,603.00
2023-03-29T16:34:54.843Z,603.00
2023-03-29T16:35:54.877Z,602.00
2023-03-29T16:36:54.842Z,604.00
2023-03-29T16:37:54.844Z,602.00
2023-03-29T16:38:54.850Z,601.00
2023-03-29T16:39:54.853Z,603.00
2023-03-29T16:40:54.852Z,598.00
2023-03-29T16:41:54.832Z,601.00
2023-03-29T16:42:54.828Z,599.00
2023-03-29T16:43:54.836Z,599.00
2023-03-29T16:44:54.832Z,600.00
2023-03-29T16:45:54.897Z,601.00
2023-03-29T16:46:54.823Z,603.00
2023-03-29T16:47:54.845Z,602.00
2023-03-29T16:48:54.828Z,601.00
2023-03-29T16:49:54.816Z,599.00
2023-03-29T16:50:54.891Z,599.00
2023-03-29T16:51:55.217Z,603.00
2023-03-29T16:52:54.828Z,604.00
2023-03-29T16:53:54.836Z,605.00
2023-03-29T16:54:54.828Z,605.00
2023-03-29T16:55:54.836Z,604.00
2023-03-29T16:56:54.866Z,603.00
2023-03-29T16:57:54.845Z,603.00
2023-03-29T16:58:54.849Z,605.00
2023-03-29T16:59:54.947Z,604.00
2023-03-29T17:00:54.874Z,605.00
2023-03-29T17:01:54.942Z,607.00
2023-03-29T17:02:54.881Z,607.00
2023-03-29T17:03:54.889Z,606.00
2023-03-29T17:04:54.950Z,605.00
2023-03-29T17:05:54.889Z,607.00
2023-03-29T17:06:54.893Z,608.00
2023-03-29T17:07:54.906Z,608.00
2023-03-29T17:08:54.921Z,606.00
2023-03-29T17:09:55.013Z,606.00
2023-03-29T17:10:54.961Z,605.00
2023-03-29T17:11:54.970Z,609.00
2023-03-29T17:12:54.977Z,606.00
2023-03-29T17:13:54.984Z,607.00
2023-03-29T17:14:55.007Z,608.00
2023-03-29T17:15:55.053Z,611.00
2023-03-29T17:16:55.013Z,613.00
2023-03-29T17:17:55.013Z,617.00
2023-03-29T17:18:54.977Z,618.00
2023-03-29T17:19:54.995Z,616.00
2023-03-29T17:20:54.936Z,614.00
2023-03-29T17:21:54.917Z,615.00
2023-03-29T17:22:54.921Z,614.00
2023-03-29T17:23:54.893Z,618.00
2023-03-29T17:24:54.887Z,618.00
2023-03-29T17:25:54.871Z,618.00
2023-03-29T17:26:54.868Z,618.00
2023-03-29T17:27:54.859Z,619.00
2023-03-29T17:28:54.838Z,619.00
2023-03-29T17:29:54.881Z,617.00
2023-03-29T17:30:54.869Z,614.00
2023-03-29T17:31:54.795Z,614.00
2023-03-29T17:32:54.803Z,613.00
2023-03-29T17:33:54.767Z,612.00
2023-03-29T17:34:54.774Z,613.00
2023-03-29T17:35:54.780Z,612.00
2023-03-29T17:36:54.740Z,613.00
2023-03-29T17:37:54.727Z,615.00
2023-03-29T17:38:54.749Z,614.00
2023-03-29T17:39:54.704Z,614.00
2023-03-29T17:40:54.677Z,614.00
2023-03-29T17:41:54.678Z,616.00
2023-03-29T17:42:54.645Z,611.00
2023-03-29T17:43:54.645Z,610.00
2023-03-29T17:44:54.687Z,609.00
2023-03-29T17:45:54.634Z,607.00
2023-03-29T17:46:54.635Z,607.00
2023-03-29T17:47:54.694Z,608.00
2023-03-29T17:48:54.626Z,606.00
2023-03-29T17:49:54.672Z,609.00
2023-03-29T17:50:54.701Z,610.00
2023-03-29T17:51:54.723Z,608.00
2023-03-29T17:52:54.751Z,608.00
2023-03-29T17:53:54.791Z,606.00
2023-03-29T17:54:54.824Z,608.00
2023-03-29T17:55:54.825Z,608.00
2023-03-29T17:56:54.880Z,608.00
2023-03-29T17:57:54.884Z,609.00
2023-03-29T17:58:54.919Z,612.00
2023-03-29T17:59:54.960Z,610.00
2023-03-29T18:00:55.019Z,611.00
2023-03-29T18:01:55.042Z,609.00
2023-03-29T18:02:55.267Z,609.00
2023-03-29T18:03:55.093Z,608.00
2023-03-29T18:04:55.128Z,611.00
2023-03-29T18:05:55.167Z,612.00
2023-03-29T18:06:55.179Z,614.00
2023-03-29T18:07:55.215Z,614.00
2023-03-29T18:08:55.240Z,617.00
2023-03-29T18:09:55.284Z,613.00
2023-03-29T18:10:55.321Z,613.00
2023-03-29T18:11:55.358Z,612.00
2023-03-29T18:12:55.386Z,612.00
2023-03-29T18:13:55.419Z,615.00
2023-03-29T18:14:55.469Z,614.00
2023-03-29T18:15:55.509Z,617.00
2023-03-29T18:16:55.560Z,614.00
2023-03-29T18:17:55.601Z,612.00
2023-03-29T18:18:55.622Z,613.00
2023-03-29T18:19:55.669Z,614.00
2023-03-29T18:20:55.703Z,614.00
2023-03-29T18:21:55.737Z,611.00
2023-03-29T18:22:55.785Z,607.00
2023-03-29T18:23:57.005Z,605.00
2023-03-29T18:24:55.869Z,604.00
2023-03-29T18:25:55.860Z,605.00
2023-03-29T18:26:55.903Z,604.00
2023-03-29T18:27:55.944Z,603.00
2023-03-29T18:28:55.999Z,607.00
2023-03-29T18:29:55.969Z,607.00
2023-03-29T18:30:55.957Z,605.00
2023-03-29T18:31:56.032Z,606.00
2023-03-29T18:32:55.968Z,607.00
2023-03-29T18:33:55.932Z,610.00
2023-03-29T18:34:55.932Z,610.00
2023-03-29T18:35:55.996Z,609.00
2023-03-29T18:36:55.920Z,611.00
2023-03-29T18:37:55.916Z,609.00
2023-03-29T18:38:55.944Z,609.00
2023-03-29T18:39:55.906Z,609.00
2023-03-29T18:40:55.881Z,613.00